Time;durP1;ratioP1;P1;durP2;ratioP2;P2;SDS_P1;SDS_P2;PMS_P1;PMS_P2;Temp;Humidity;BMP_temperature;BMP_pressure;BME280_temperature;BME280_humidity;BME280_pressure;Samples;Min_cycle;Max_cycle;Signal;HPM_P1;HPM_P2
2023/09/07 00:02:17;;;;;;;6.73;4.53;;;18.70;99.90;;;;;;4997666;28;20206;-83
2023/09/07 00:04:43;;;;;;;5.53;4.20;;;18.70;99.90;;;;;;5030333;28;20194;-83
2023/09/07 00:07:09;;;;;;;9.53;4.63;;;18.60;99.90;;;;;;5013764;28;20263;-83
2023/09/07 00:09:35;;;;;;;5.43;4.23;;;18.50;99.90;;;;;;4997420;28;20226;-84
2023/09/07 00:12:00;;;;;;;4.40;3.87;;;18.40;99.90;;;;;;4996923;28;20354;-83
2023/09/07 00:14:26;;;;;;;5.50;3.60;;;18.30;99.90;;;;;;5013544;28;20265;-83
2023/09/07 00:16:52;;;;;;;4.57;3.80;;;18.20;99.90;;;;;;5030496;28;20182;-83
2023/09/07 00:19:18;;;;;;;7.63;4.47;;;18.20;99.90;;;;;;4998503;28;20575;-83
2023/09/07 00:21:43;;;;;;;5.67;3.83;;;18.30;99.90;;;;;;5013187;28;20297;-83
2023/09/07 00:24:10;;;;;;;4.70;4.03;;;18.40;99.90;;;;;;5030177;28;20223;-83
2023/09/07 00:26:35;;;;;;;7.90;4.00;;;18.40;99.90;;;;;;5030811;28;20233;-83
2023/09/07 00:29:01;;;;;;;4.27;3.10;;;18.40;99.90;;;;;;5013722;28;20729;-83
2023/09/07 00:31:27;;;;;;;3.70;3.27;;;18.50;99.90;;;;;;5013540;28;20281;-82
2023/09/07 00:33:53;;;;;;;5.07;4.10;;;18.50;99.90;;;;;;5030828;28;20216;-83
2023/09/07 00:36:18;;;;;;;7.77;4.80;;;18.50;99.90;;;;;;5028331;28;20219;-84
2023/09/07 00:38:44;;;;;;;4.67;4.10;;;18.50;99.90;;;;;;5010248;28;20218;-84
2023/09/07 00:41:12;;;;;;;5.53;4.93;;;18.50;99.90;;;;;;4994436;28;20215;-83
2023/09/07 00:43:40;;;;;;;5.07;4.57;;;18.50;99.90;;;;;;5030042;28;21189;-83
2023/09/07 00:46:06;;;;;;;4.37;3.83;;;18.50;99.90;;;;;;4998268;28;20221;-83
2023/09/07 00:48:33;;;;;;;4.73;4.20;;;18.50;99.90;;;;;;5013413;28;20211;-83
2023/09/07 00:50:59;;;;;;;4.23;3.83;;;18.50;99.90;;;;;;5013279;28;20227;-82
2023/09/07 00:53:27;;;;;;;7.90;4.53;;;18.40;99.90;;;;;;5013456;28;20217;-83
2023/09/07 00:55:55;;;;;;;5.40;4.23;;;18.40;99.90;;;;;;5012959;28;25752;-83
2023/09/07 00:58:21;;;;;;;6.83;4.27;;;18.30;99.90;;;;;;5030230;28;20179;-82
2023/09/07 01:00:48;;;;;;;5.13;4.50;;;18.20;99.90;;;;;;5029170;28;20223;-83
2023/09/07 01:03:14;;;;;;;8.23;5.27;;;18.20;99.90;;;;;;5029863;28;20568;-82
2023/09/07 01:05:50;;;;;;;5.87;4.43;;;18.20;99.90;;;;;;5013414;28;20309;-83
2023/09/07 01:08:26;;;;;;;5.23;4.30;;;18.20;99.90;;;;;;5029752;28;20573;-84
2023/09/07 01:10:52;;;;;;;5.20;4.13;;;18.20;99.90;;;;;;5030860;28;20200;-83
2023/09/07 01:13:19;;;;;;;6.10;4.27;;;18.30;99.90;;;;;;4997434;28;20289;-83
2023/09/07 01:15:45;;;;;;;6.77;4.23;;;18.30;99.90;;;;;;4994078;28;20258;-83
2023/09/07 01:18:11;;;;;;;5.57;4.17;;;18.40;99.90;;;;;;5009682;28;20226;-83
2023/09/07 01:20:40;;;;;;;4.53;3.90;;;18.40;99.90;;;;;;5010154;28;21083;-82
2023/09/07 01:23:07;;;;;;;8.10;4.50;;;18.30;99.90;;;;;;5028749;28;20717;-83
2023/09/07 01:25:34;;;;;;;5.47;4.27;;;18.30;99.90;;;;;;5029083;28;20273;-84
2023/09/07 01:28:00;;;;;;;6.03;4.50;;;18.30;99.90;;;;;;5029994;28;20650;-83
2023/09/07 01:30:29;;;;;;;5.80;5.20;;;18.20;99.90;;;;;;5012026;28;20225;-83
2023/09/07 01:32:55;;;;;;;8.23;5.10;;;18.20;99.90;;;;;;5012536;28;20219;-83
2023/09/07 01:35:22;;;;;;;4.70;3.97;;;18.20;99.90;;;;;;5011962;28;20288;-83
2023/09/07 01:37:48;;;;;;;7.07;3.93;;;18.10;99.90;;;;;;5009560;28;20628;-85
2023/09/07 01:40:14;;;;;;;4.93;4.17;;;18.10;99.90;;;;;;5027065;28;20542;-83
2023/09/07 01:42:40;;;;;;;6.23;4.60;;;18.10;99.90;;;;;;5011350;28;20225;-82
2023/09/07 01:45:07;;;;;;;7.33;4.23;;;18.10;99.90;;;;;;5011592;28;20211;-83
2023/09/07 01:47:32;;;;;;;5.57;4.53;;;18.00;99.90;;;;;;5012322;28;20253;-82
2023/09/07 01:49:58;;;;;;;9.37;4.57;;;18.00;99.90;;;;;;5012693;28;20265;-83
2023/09/07 01:52:24;;;;;;;5.37;4.40;;;18.00;99.90;;;;;;4998100;28;20194;-82
2023/09/07 01:54:50;;;;;;;6.07;4.63;;;18.00;99.90;;;;;;5016239;28;20682;-83
2023/09/07 01:57:16;;;;;;;5.20;4.70;;;17.80;99.90;;;;;;5000352;28;20703;-83
2023/09/07 01:59:41;;;;;;;7.30;4.20;;;17.80;99.90;;;;;;5031593;28;20230;-83
2023/09/07 02:02:07;;;;;;;4.77;4.07;;;17.80;99.90;;;;;;5032704;28;20229;-82
2023/09/07 02:04:33;;;;;;;5.50;4.13;;;17.70;99.90;;;;;;5015776;28;20206;-84
2023/09/07 02:06:59;;;;;;;7.03;4.07;;;17.70;99.90;;;;;;5000311;28;20277;-82
2023/09/07 02:09:24;;;;;;;4.13;3.83;;;17.60;99.90;;;;;;5032660;28;20729;-83
2023/09/07 02:11:50;;;;;;;7.20;4.50;;;17.50;99.90;;;;;;5016034;28;20218;-83
2023/09/07 02:14:16;;;;;;;5.63;4.63;;;17.40;99.90;;;;;;5015476;28;20226;-82
2023/09/07 02:16:41;;;;;;;5.90;4.40;;;17.30;99.90;;;;;;5015755;28;20710;-83
2023/09/07 02:19:07;;;;;;;6.27;4.63;;;17.20;99.90;;;;;;5033115;28;20203;-82
2023/09/07 02:21:33;;;;;;;5.40;4.40;;;17.20;99.90;;;;;;5031846;28;20226;-82
2023/09/07 02:23:59;;;;;;;4.77;4.17;;;17.20;99.90;;;;;;5015370;28;20218;-83
2023/09/07 02:26:25;;;;;;;5.60;4.97;;;17.10;99.90;;;;;;5015328;28;20301;-82
2023/09/07 02:28:50;;;;;;;6.60;4.97;;;17.00;99.90;;;;;;5032086;28;20300;-83
2023/09/07 02:31:16;;;;;;;4.67;3.80;;;17.00;99.90;;;;;;4999996;28;20665;-83
2023/09/07 02:33:42;;;;;;;9.00;4.47;;;17.00;99.90;;;;;;5015451;28;20585;-83
2023/09/07 02:36:08;;;;;;;4.03;3.63;;;17.00;99.90;;;;;;5014442;28;20214;-83
2023/09/07 02:38:34;;;;;;;5.97;4.50;;;17.00;99.90;;;;;;4995828;28;20207;-83
2023/09/07 02:40:59;;;;;;;7.10;5.60;;;16.90;99.90;;;;;;5013681;28;20230;-83
2023/09/07 02:43:25;;;;;;;6.77;4.97;;;16.90;99.90;;;;;;5016164;28;20175;-83
2023/09/07 02:45:51;;;;;;;5.80;4.97;;;16.80;99.90;;;;;;5014795;28;20215;-83
2023/09/07 02:48:17;;;;;;;6.37;5.10;;;16.80;99.90;;;;;;4996765;28;20709;-82
2023/09/07 02:50:45;;;;;;;4.63;4.13;;;16.80;99.90;;;;;;5015326;28;20250;-83
2023/09/07 02:53:10;;;;;;;5.83;4.73;;;16.70;99.90;;;;;;5015114;28;20276;-83
2023/09/07 02:55:39;;;;;;;5.57;4.10;;;16.70;99.90;;;;;;5015139;28;20613;-82
2023/09/07 02:58:05;;;;;;;6.67;4.40;;;16.70;99.90;;;;;;5032154;28;20545;-82
2023/09/07 03:00:31;;;;;;;6.43;4.50;;;16.70;99.90;;;;;;4999086;28;20249;-83
2023/09/07 03:02:57;;;;;;;12.03;5.57;;;16.70;99.90;;;;;;5030719;28;21030;-82
2023/09/07 03:05:22;;;;;;;6.50;5.10;;;16.60;99.90;;;;;;5031098;28;20214;-83
2023/09/07 03:07:49;;;;;;;6.30;5.27;;;16.60;99.90;;;;;;4998398;28;20270;-83
2023/09/07 03:10:14;;;;;;;6.50;4.80;;;16.60;99.90;;;;;;5014856;28;20241;-83
2023/09/07 03:12:40;;;;;;;7.23;5.30;;;16.60;99.90;;;;;;5011762;28;20214;-83
2023/09/07 03:15:07;;;;;;;6.97;4.80;;;16.60;99.90;;;;;;5027034;28;20262;-83
2023/09/07 03:17:33;;;;;;;6.10;5.13;;;16.60;99.90;;;;;;5030474;28;20699;-83
2023/09/07 03:19:59;;;;;;;6.87;4.50;;;16.60;99.90;;;;;;5030857;28;20267;-84
2023/09/07 03:22:25;;;;;;;9.60;6.20;;;16.50;99.90;;;;;;5013200;28;20278;-83
2023/09/07 03:24:51;;;;;;;5.53;4.50;;;16.50;99.90;;;;;;5030124;28;20241;-83
2023/09/07 03:27:17;;;;;;;11.00;5.27;;;16.40;99.90;;;;;;5030731;28;20268;-83
2023/09/07 03:29:44;;;;;;;6.33;4.67;;;16.30;99.90;;;;;;5030805;28;20317;-83
2023/09/07 03:32:10;;;;;;;7.03;5.03;;;16.20;99.90;;;;;;5031130;28;20276;-83
2023/09/07 03:34:36;;;;;;;6.57;5.73;;;16.20;99.90;;;;;;5014832;28;20219;-83
2023/09/07 03:37:02;;;;;;;7.80;5.07;;;16.10;99.90;;;;;;5012519;28;20183;-83
2023/09/07 03:39:28;;;;;;;6.57;5.50;;;16.00;99.90;;;;;;5010688;28;20210;-83
2023/09/07 03:41:54;;;;;;;8.33;4.80;;;15.90;99.90;;;;;;4996533;28;20225;-83
2023/09/07 03:44:19;;;;;;;4.80;4.30;;;15.90;99.90;;;;;;5030783;28;20276;-83
2023/09/07 03:46:45;;;;;;;5.83;4.97;;;15.90;99.90;;;;;;5030366;28;20186;-83
2023/09/07 03:49:11;;;;;;;6.10;4.53;;;15.90;99.90;;;;;;5030618;28;20206;-83
2023/09/07 03:51:37;;;;;;;8.47;4.83;;;15.80;99.90;;;;;;4998098;28;20214;-83
2023/09/07 03:54:03;;;;;;;6.63;4.83;;;15.90;99.90;;;;;;4998112;28;20249;-82
2023/09/07 03:56:29;;;;;;;5.60;4.90;;;15.80;99.90;;;;;;5014216;28;20284;-82
2023/09/07 03:58:55;;;;;;;7.00;5.57;;;15.80;99.90;;;;;;5013911;28;20221;-83
2023/09/07 04:01:20;;;;;;;6.03;4.60;;;15.80;99.90;;;;;;5014623;28;20187;-82
2023/09/07 04:03:46;;;;;;;6.77;4.87;;;15.70;99.90;;;;;;4997751;28;20214;-83
2023/09/07 04:06:12;;;;;;;6.97;4.93;;;15.70;99.90;;;;;;4997584;28;20203;-82
2023/09/07 04:08:38;;;;;;;8.87;5.37;;;15.70;99.90;;;;;;5013410;28;20282;-83
2023/09/07 04:11:06;;;;;;;8.00;5.10;;;15.70;99.90;;;;;;5030315;28;20222;-82
2023/09/07 04:13:32;;;;;;;6.43;5.00;;;15.60;99.90;;;;;;5012547;28;20213;-83
2023/09/07 04:15:58;;;;;;;7.87;4.63;;;15.60;99.90;;;;;;5013688;28;21239;-83
2023/09/07 04:18:24;;;;;;;7.33;4.90;;;15.70;99.90;;;;;;4997466;28;20215;-82
2023/09/07 04:20:50;;;;;;;6.63;5.43;;;15.70;99.90;;;;;;4996692;28;20281;-86
2023/09/07 04:23:16;;;;;;;7.27;4.67;;;15.70;99.90;;;;;;5010553;28;20246;-83
2023/09/07 04:25:41;;;;;;;7.40;5.60;;;15.70;99.90;;;;;;5028065;28;20650;-83
2023/09/07 04:28:08;;;;;;;6.00;5.13;;;15.80;99.90;;;;;;5012995;28;20197;-83
2023/09/07 04:30:43;;;;;;;6.30;5.23;;;15.80;99.90;;;;;;5030249;28;20222;-82
2023/09/07 04:33:08;;;;;;;6.27;4.57;;;15.90;99.90;;;;;;5029918;28;20369;-82
2023/09/07 04:35:34;;;;;;;9.83;6.27;;;15.90;99.90;;;;;;5013265;28;20309;-82
2023/09/07 04:38:00;;;;;;;11.33;6.63;;;15.90;99.90;;;;;;5009791;28;20917;-84
2023/09/07 04:40:26;;;;;;;6.77;5.00;;;16.00;99.90;;;;;;4993830;28;20183;-83
2023/09/07 04:42:52;;;;;;;9.67;6.10;;;16.00;99.90;;;;;;5012174;28;20298;-83
2023/09/07 04:45:17;;;;;;;10.00;5.60;;;16.00;99.90;;;;;;5013110;28;20230;-83
2023/09/07 04:47:43;;;;;;;6.47;5.53;;;15.90;99.90;;;;;;5028865;28;20206;-85
2023/09/07 04:50:10;;;;;;;6.47;5.17;;;15.90;99.90;;;;;;5012462;28;20715;-83
2023/09/07 04:52:35;;;;;;;7.07;5.13;;;15.80;99.90;;;;;;5029433;28;20193;-82
2023/09/07 04:55:02;;;;;;;7.10;5.77;;;15.70;99.90;;;;;;5013423;28;20195;-83
2023/09/07 04:57:29;;;;;;;6.40;4.83;;;15.60;99.90;;;;;;5013147;28;20206;-82
2023/09/07 04:59:55;;;;;;;6.43;4.80;;;15.60;99.90;;;;;;5012529;28;20222;-82
2023/09/07 05:02:21;;;;;;;6.03;4.60;;;15.50;99.90;;;;;;5011939;28;20210;-82
2023/09/07 05:04:46;;;;;;;10.90;5.17;;;15.60;99.90;;;;;;5013253;28;20651;-83
2023/09/07 05:07:12;;;;;;;6.70;5.17;;;15.60;99.90;;;;;;5012893;28;20198;-83
2023/09/07 05:09:38;;;;;;;6.23;4.53;;;15.60;99.90;;;;;;4996347;28;20305;-82
2023/09/07 05:12:04;;;;;;;6.97;5.47;;;15.60;99.90;;;;;;4996732;28;20237;-84
2023/09/07 05:14:29;;;;;;;12.60;6.70;;;15.80;99.90;;;;;;5029252;28;20234;-83
2023/09/07 05:16:56;;;;;;;10.63;6.23;;;16.10;99.90;;;;;;5013218;28;20218;-83
2023/09/07 05:19:22;;;;;;;8.17;7.13;;;16.60;99.90;;;;;;5014054;28;20281;-83
2023/09/07 05:21:48;;;;;;;8.77;5.30;;;16.90;99.90;;;;;;5029448;28;20218;-82
2023/09/07 05:24:17;;;;;;;8.33;5.70;;;17.20;99.90;;;;;;5029293;28;20218;-83
2023/09/07 05:26:43;;;;;;;9.17;5.83;;;17.20;99.90;;;;;;5030364;28;20215;-83
2023/09/07 05:29:11;;;;;;;6.83;5.27;;;17.10;99.90;;;;;;5016966;28;20218;-83
2023/09/07 05:31:37;;;;;;;6.80;4.70;;;17.00;99.90;;;;;;5030870;28;20555;-84
2023/09/07 05:34:03;;;;;;;6.57;5.50;;;16.90;99.90;;;;;;4997803;28;20182;-83
2023/09/07 05:36:29;;;;;;;5.70;4.43;;;16.90;99.90;;;;;;4996557;28;20297;-83
2023/09/07 05:38:55;;;;;;;7.10;5.33;;;17.10;99.90;;;;;;5013082;28;20325;-82
2023/09/07 05:41:21;;;;;;;7.47;5.17;;;17.20;99.90;;;;;;5012586;28;20349;-83
2023/09/07 05:43:46;;;;;;;6.60;4.83;;;17.40;99.90;;;;;;5015809;28;20182;-84
2023/09/07 05:46:12;;;;;;;6.23;4.47;;;17.30;99.90;;;;;;5016951;28;20190;-82
2023/09/07 05:48:38;;;;;;;5.40;4.87;;;17.30;99.90;;;;;;4997725;28;20212;-82
2023/09/07 05:51:04;;;;;;;7.17;5.80;;;17.30;99.90;;;;;;5016273;28;20225;-83
2023/09/07 05:53:29;;;;;;;6.90;4.77;;;17.30;99.90;;;;;;5031439;28;20215;-82
2023/09/07 05:55:55;;;;;;;6.83;5.27;;;17.40;99.90;;;;;;5032585;28;20298;-82
2023/09/07 05:58:21;;;;;;;7.43;5.33;;;17.60;99.90;;;;;;5032625;28;20179;-81
2023/09/07 06:00:47;;;;;;;8.63;5.23;;;18.20;99.90;;;;;;4999755;28;20296;-81
2023/09/07 06:03:13;;;;;;;8.67;5.13;;;18.90;99.90;;;;;;4999338;28;20217;-82
2023/09/07 06:05:39;;;;;;;7.33;5.07;;;19.60;99.90;;;;;;5016208;28;20218;-82
2023/09/07 06:08:08;;;;;;;6.00;5.37;;;20.60;99.90;;;;;;5031651;28;20218;-82
2023/09/07 06:10:34;;;;;;;6.90;5.63;;;21.50;99.90;;;;;;5031986;28;20703;-82
2023/09/07 06:13:00;;;;;;;8.00;4.97;;;22.20;99.90;;;;;;5016529;28;20179;-82
2023/09/07 06:15:27;;;;;;;6.77;4.43;;;22.50;99.90;;;;;;5014814;28;20224;-82
2023/09/07 06:17:54;;;;;;;7.20;4.60;;;22.60;99.90;;;;;;5015586;28;20215;-84
2023/09/07 06:20:19;;;;;;;5.20;4.10;;;22.10;99.90;;;;;;5016004;28;20635;-81
2023/09/07 06:22:45;;;;;;;5.27;4.17;;;21.30;99.90;;;;;;5031651;28;20222;-82
2023/09/07 06:25:11;;;;;;;8.27;4.23;;;20.30;99.90;;;;;;5015524;28;20635;-83
2023/09/07 06:27:40;;;;;;;4.10;3.50;;;19.60;99.90;;;;;;5030465;28;20250;-83
2023/09/07 06:30:06;;;;;;;6.07;4.07;;;19.20;99.90;;;;;;5016064;28;20215;-84
2023/09/07 06:32:32;;;;;;;7.70;4.50;;;19.00;99.90;;;;;;5031418;28;20214;-84
2023/09/07 06:34:58;;;;;;;7.30;5.47;;;18.90;99.90;;;;;;4998944;28;20214;-83
2023/09/07 06:37:24;;;;;;;5.67;4.90;;;18.80;99.90;;;;;;4997208;28;20179;-83
2023/09/07 06:39:50;;;;;;;13.60;4.67;;;18.90;99.90;;;;;;5028476;28;20293;-83
2023/09/07 06:42:16;;;;;;;6.37;4.10;;;19.00;99.90;;;;;;5014692;28;20202;-84
2023/09/07 06:44:42;;;;;;;6.03;4.93;;;19.20;99.90;;;;;;5031043;28;20276;-83
2023/09/07 06:47:08;;;;;;;7.37;5.37;;;19.60;99.90;;;;;;5015578;28;20918;-83
2023/09/07 06:49:34;;;;;;;7.00;5.27;;;20.60;99.90;;;;;;5015061;28;20217;-85
2023/09/07 06:52:00;;;;;;;6.13;4.40;;;21.60;99.90;;;;;;5031323;28;20195;-83
2023/09/07 06:54:28;;;;;;;8.10;4.93;;;22.30;99.90;;;;;;5014659;28;20571;-82
2023/09/07 06:56:54;;;;;;;5.83;4.63;;;23.30;99.90;;;;;;5031000;28;20258;-83
2023/09/07 06:59:19;;;;;;;8.95;5.22;;;24.50;99.90;;;;;;5013949;28;20242;-83
2023/09/07 07:01:45;;;;;;;7.32;4.85;;;25.30;99.90;;;;;;5014799;28;20216;-83
2023/09/07 07:04:11;;;;;;;6.38;4.78;;;25.90;99.90;;;;;;4999035;28;20189;-84
2023/09/07 07:06:37;;;;;;;6.18;4.68;;;26.80;99.90;;;;;;5014255;28;20233;-83
2023/09/07 07:09:03;;;;;;;4.50;4.10;;;27.10;99.90;;;;;;5014593;28;20902;-83
2023/09/07 07:11:28;;;;;;;6.10;4.60;;;27.40;99.90;;;;;;5045467;28;20309;-83
2023/09/07 07:13:54;;;;;;;6.88;4.15;;;26.90;99.90;;;;;;5014633;28;20203;-83
2023/09/07 07:16:20;;;;;;;6.47;4.20;;;26.70;99.90;;;;;;4998239;28;20271;-84
2023/09/07 07:18:46;;;;;;;7.15;4.53;;;26.30;99.90;;;;;;5014197;28;20218;-83
2023/09/07 07:21:11;;;;;;;5.30;3.80;;;25.90;99.90;;;;;;5014621;28;20234;-83
2023/09/07 07:23:37;;;;;;;5.78;4.15;;;25.30;99.90;;;;;;4998064;28;20210;-83
2023/09/07 07:26:03;;;;;;;5.40;4.53;;;25.30;99.90;;;;;;5014265;28;20230;-84
2023/09/07 07:28:29;;;;;;;5.93;4.63;;;25.60;99.90;;;;;;5031139;28;20232;-83
2023/09/07 07:30:55;;;;;;;4.88;4.47;;;25.60;99.90;;;;;;5013581;28;20699;-84
2023/09/07 07:33:20;;;;;;;6.00;4.15;;;25.80;99.90;;;;;;5014074;28;20222;-85
2023/09/07 07:35:46;;;;;;;5.50;4.32;;;25.50;99.90;;;;;;5012700;28;20218;-84
2023/09/07 07:38:13;;;;;;;4.80;4.35;;;25.50;99.90;;;;;;5026661;28;20222;-86
2023/09/07 07:40:40;;;;;;;5.15;3.97;;;24.70;99.90;;;;;;5026938;28;20190;-85
2023/09/07 07:43:07;;;;;;;6.97;4.10;;;25.00;99.90;;;;;;5014672;28;20282;-85
2023/09/07 07:45:36;;;;;;;4.97;3.80;;;24.60;99.90;;;;;;5014176;28;20210;-85
2023/09/07 07:48:08;;;;;;;4.18;3.65;;;24.40;99.90;;;;;;4998914;28;20325;-85
2023/09/07 07:50:43;;;;;;;5.55;4.03;;;24.30;99.90;;;;;;5013751;28;20210;-85
2023/09/07 07:53:09;;;;;;;3.92;3.55;;;24.20;99.90;;;;;;5031609;28;20222;-85
2023/09/07 07:55:40;;;;;;;8.15;4.45;;;24.60;99.90;;;;;;5014178;28;20201;-85
2023/09/07 07:58:09;;;;;;;6.50;4.90;;;24.40;99.90;;;;;;5030777;28;20245;-85
2023/09/07 08:00:40;;;;;;;6.10;4.32;;;24.80;99.90;;;;;;5030122;28;20641;-85
2023/09/07 08:03:06;;;;;;;4.07;3.67;;;25.10;99.90;;;;;;5013891;28;20210;-85
2023/09/07 08:05:33;;;;;;;7.18;4.07;;;24.90;99.90;;;;;;5013707;28;20687;-85
2023/09/07 08:07:59;;;;;;;5.78;4.32;;;25.10;99.90;;;;;;4996324;28;20207;-85
2023/09/07 08:10:26;;;;;;;4.25;3.85;;;24.90;99.90;;;;;;5013552;28;20219;-85
2023/09/07 08:12:56;;;;;;;5.68;3.97;;;25.10;99.90;;;;;;5013525;28;20245;-85
2023/09/07 08:15:22;;;;;;;4.55;3.60;;;25.80;99.90;;;;;;5029443;28;20777;-85
2023/09/07 08:17:48;;;;;;;5.35;4.47;;;26.10;99.90;;;;;;5030506;28;20202;-85
2023/09/07 08:20:15;;;;;;;4.30;3.88;;;26.20;99.90;;;;;;4997149;28;20910;-85
2023/09/07 08:22:42;;;;;;;4.75;3.78;;;26.60;99.90;;;;;;5013168;28;20189;-84
2023/09/07 08:25:09;;;;;;;5.32;4.45;;;26.30;99.90;;;;;;5014121;28;20265;-85
2023/09/07 08:27:35;;;;;;;4.95;4.38;;;26.30;99.90;;;;;;5013940;28;20225;-84
2023/09/07 08:30:00;;;;;;;5.57;3.28;;;26.10;99.90;;;;;;5013879;28;20223;-86
2023/09/07 08:32:26;;;;;;;5.05;3.85;;;26.30;99.90;;;;;;4997215;28;20701;-86
2023/09/07 08:34:56;;;;;;;5.80;4.10;;;26.20;99.90;;;;;;5014365;28;20191;-85
2023/09/07 08:37:22;;;;;;;5.72;4.25;;;26.50;99.90;;;;;;4995975;28;20207;-85
2023/09/07 08:39:48;;;;;;;6.13;4.05;;;26.50;99.90;;;;;;5008693;28;20234;-86
2023/09/07 08:42:14;;;;;;;4.25;3.78;;;26.70;99.90;;;;;;4994657;28;20210;-85
2023/09/07 08:44:46;;;;;;;5.00;3.83;;;26.30;99.90;;;;;;5014074;28;20705;-85
2023/09/07 08:47:14;;;;;;;5.30;4.20;;;26.30;99.90;;;;;;5030624;28;20251;-86
2023/09/07 08:49:43;;;;;;;5.78;3.80;;;26.00;99.90;;;;;;5029846;28;20679;-85
2023/09/07 08:52:09;;;;;;;5.80;3.88;;;25.70;99.90;;;;;;5030692;28;20202;-84
2023/09/07 08:54:37;;;;;;;7.93;3.60;;;25.80;99.90;;;;;;5013007;28;20701;-84
2023/09/07 08:57:07;;;;;;;4.80;3.40;;;26.10;99.90;;;;;;5045372;28;20214;-84
2023/09/07 08:59:32;;;;;;;4.88;3.90;;;26.30;99.90;;;;;;5011976;28;20210;-84
2023/09/07 09:01:58;;;;;;;8.38;4.10;;;26.60;99.90;;;;;;5000136;28;20210;-86
2023/09/07 09:04:28;;;;;;;4.18;3.70;;;27.10;99.90;;;;;;5018423;28;20701;-85
2023/09/07 09:06:53;;;;;;;5.00;3.95;;;26.90;99.90;;;;;;5017472;28;20655;-86
2023/09/07 09:09:24;;;;;;;4.38;3.40;;;26.80;99.90;;;;;;5034196;28;20234;-86
2023/09/07 09:11:51;;;;;;;4.65;3.53;;;26.60;99.90;;;;;;5017757;28;20225;-85
2023/09/07 09:14:22;;;;;;;4.65;3.45;;;27.10;99.90;;;;;;5033280;28;20206;-85
2023/09/07 09:16:50;;;;;;;4.90;3.58;;;27.20;99.90;;;;;;5033091;28;20218;-85
2023/09/07 09:19:16;;;;;;;4.63;3.00;;;26.80;99.90;;;;;;5017030;28;20647;-85
2023/09/07 09:21:44;;;;;;;4.95;3.88;;;26.80;99.90;;;;;;5033566;28;20213;-85
2023/09/07 09:24:14;;;;;;;4.70;3.63;;;27.10;99.90;;;;;;5017038;28;20226;-83
2023/09/07 09:26:43;;;;;;;3.47;3.17;;;27.30;99.90;;;;;;5033522;28;20305;-86
2023/09/07 09:29:11;;;;;;;3.90;3.13;;;27.60;99.90;;;;;;5000875;28;20711;-85
2023/09/07 09:31:37;;;;;;;3.88;3.30;;;27.80;99.90;;;;;;5017363;28;20179;-85
2023/09/07 09:34:02;;;;;;;3.47;2.90;;;27.40;99.90;;;;;;5017496;28;20233;-85
2023/09/07 09:36:36;;;;;;;4.35;2.90;;;27.70;99.90;;;;;;5031130;28;20207;-85
2023/09/07 09:39:03;;;;;;;7.25;3.67;;;28.00;99.90;;;;;;5012618;28;20328;-85
2023/09/07 09:41:34;;;;;;;3.60;3.28;;;27.90;99.90;;;;;;4998545;28;20218;-86
2023/09/07 09:44:03;;;;;;;6.50;3.30;;;27.90;99.90;;;;;;5032029;28;20222;-86
2023/09/07 09:46:32;;;;;;;4.35;3.40;;;27.60;99.90;;;;;;5033322;28;20509;-85
2023/09/07 09:48:57;;;;;;;3.88;3.10;;;27.60;99.90;;;;;;5015879;28;20578;-85
2023/09/07 09:51:24;;;;;;;3.38;2.95;;;27.90;99.90;;;;;;5016386;28;20217;-85
2023/09/07 09:53:51;;;;;;;3.97;3.08;;;27.80;99.90;;;;;;5032600;28;20213;-85
2023/09/07 09:56:17;;;;;;;3.63;2.95;;;28.00;99.90;;;;;;5049407;28;20202;-85
2023/09/07 09:58:43;;;;;;;3.97;3.03;;;28.10;99.90;;;;;;4998352;28;20182;-85
2023/09/07 10:01:10;;;;;;;3.55;2.90;;;28.40;99.90;;;;;;5032911;28;20183;-84
2023/09/07 10:03:46;;;;;;;3.03;2.83;;;27.90;99.90;;;;;;5016257;28;20668;-84
2023/09/07 10:06:18;;;;;;;2.88;2.60;;;27.40;99.90;;;;;;5031745;28;20222;-83
2023/09/07 10:09:17;;;;;;;2.92;2.65;;;27.30;99.90;;;;;;5032265;28;20206;-84
2023/09/07 10:11:42;;;;;;;4.00;2.97;;;28.00;99.90;;;;;;5023897;28;20252;-86
2023/09/07 10:14:08;;;;;;;3.20;2.90;;;28.20;99.90;;;;;;4998875;28;20690;-84
2023/09/07 10:16:47;;;;;;;3.40;2.97;;;28.20;99.90;;;;;;5048051;28;20235;-85
2023/09/07 10:19:21;;;;;;;4.70;3.72;;;28.60;99.90;;;;;;5032120;28;20182;-84
2023/09/07 10:21:52;;;;;;;5.55;3.30;;;28.50;99.90;;;;;;5015951;28;20222;-83
2023/09/07 10:24:35;;;;;;;3.90;2.88;;;28.10;99.90;;;;;;5030062;28;20622;-84
2023/09/07 10:27:04;;;;;;;3.58;2.75;;;28.20;99.90;;;;;;5048098;28;20256;-83
2023/09/07 10:29:44;;;;;;;3.08;2.78;;;28.10;99.90;;;;;;5031885;28;20276;-85
2023/09/07 10:32:12;;;;;;;5.75;3.10;;;28.30;99.90;;;;;;5032078;28;20210;-84
2023/09/07 10:34:43;;;;;;;3.55;2.55;;;28.40;99.90;;;;;;5032007;28;20271;-84
2023/09/07 10:37:15;;;;;;;4.35;3.47;;;28.60;99.90;;;;;;5029415;28;20175;-84
2023/09/07 10:39:45;;;;;;;4.03;2.80;;;28.30;99.90;;;;;;5011649;28;20215;-84
2023/09/07 10:42:24;;;;;;;5.38;3.35;;;28.30;99.90;;;;;;5030655;28;20210;-84
2023/09/07 10:44:50;;;;;;;7.07;2.55;;;27.90;99.90;;;;;;5014848;28;20692;-84
2023/09/07 10:47:19;;;;;;;5.05;3.25;;;27.90;99.90;;;;;;5015212;28;20761;-83
2023/09/07 10:49:45;;;;;;;3.38;2.45;;;27.90;99.90;;;;;;5014531;28;20213;-84
2023/09/07 10:52:11;;;;;;;3.47;3.17;;;27.90;99.90;;;;;;5016567;28;20274;-84
2023/09/07 10:54:37;;;;;;;4.85;2.95;;;28.00;99.90;;;;;;5031568;28;20221;-87
2023/09/07 10:57:10;;;;;;;5.22;3.10;;;27.90;99.90;;;;;;4998990;28;20214;-82
2023/09/07 10:59:36;;;;;;;3.42;2.42;;;28.30;99.90;;;;;;5008762;28;20685;-82
2023/09/07 11:02:06;;;;;;;5.30;3.00;;;28.30;99.90;;;;;;5026530;28;20333;-82
2023/09/07 11:04:32;;;;;;;3.55;2.60;;;28.20;99.90;;;;;;5010404;28;20190;-82
2023/09/07 11:06:58;;;;;;;5.18;3.05;;;28.20;99.90;;;;;;5011171;28;20294;-80
2023/09/07 11:09:24;;;;;;;3.90;3.08;;;28.50;99.90;;;;;;5010596;28;20211;-82
2023/09/07 11:11:50;;;;;;;3.50;3.00;;;28.30;99.90;;;;;;5020164;28;20711;-83
2023/09/07 11:14:16;;;;;;;5.57;2.75;;;28.30;99.90;;;;;;5027910;28;20309;-83
2023/09/07 11:16:43;;;;;;;3.50;3.20;;;28.30;99.90;;;;;;5011221;28;20210;-82
2023/09/07 11:19:15;;;;;;;4.05;2.90;;;28.20;99.90;;;;;;5013801;28;20183;-83
2023/09/07 11:22:03;;;;;;;4.55;3.47;;;28.30;99.90;;;;;;5018637;28;20218;-82
2023/09/07 11:25:00;;;;;;;2.90;2.40;;;28.60;99.90;;;;;;5029629;28;20936;-81
2023/09/07 11:27:57;;;;;;;3.35;2.55;;;28.50;99.90;;;;;;5024167;28;20260;-82
2023/09/07 11:30:36;;;;;;;3.45;2.92;;;28.20;99.90;;;;;;5039039;28;20341;-82
2023/09/07 11:33:11;;;;;;;4.32;3.17;;;28.40;99.90;;;;;;5020838;28;20209;-81
2023/09/07 11:35:57;;;;;;;3.25;2.92;;;28.80;99.90;;;;;;5005703;28;20213;-83
2023/09/07 11:38:29;;;;;;;3.20;2.90;;;28.90;99.90;;;;;;5006761;28;20206;-85
2023/09/07 11:41:03;;;;;;;2.97;2.67;;;28.70;99.90;;;;;;5024567;28;20648;-84
2023/09/07 11:43:39;;;;;;;3.53;3.20;;;28.30;99.90;;;;;;5013251;28;20190;-82
2023/09/07 11:46:14;;;;;;;4.18;2.70;;;28.10;99.90;;;;;;5012864;28;20211;-82
2023/09/07 11:48:41;;;;;;;2.92;2.72;;;28.20;99.90;;;;;;5012408;28;20248;-82
2023/09/07 11:51:15;;;;;;;5.65;2.88;;;28.30;99.90;;;;;;5004884;28;20221;-82
2023/09/07 11:53:41;;;;;;;11.45;3.03;;;28.30;99.90;;;;;;5011613;28;20240;-82
2023/09/07 11:56:07;;;;;;;4.90;2.90;;;28.10;99.90;;;;;;5005203;28;20218;-81
2023/09/07 11:58:38;;;;;;;3.63;3.05;;;28.10;99.90;;;;;;5013140;28;20194;-82
2023/09/07 12:01:04;;;;;;;4.25;3.15;;;28.20;99.90;;;;;;5029665;28;20265;-82
2023/09/07 12:03:36;;;;;;;3.67;2.83;;;28.10;99.90;;;;;;5027886;28;20720;-82
2023/09/07 12:06:14;;;;;;;3.03;2.72;;;28.20;99.90;;;;;;5006416;28;20231;-83
2023/09/07 12:08:42;;;;;;;2.97;2.65;;;28.30;99.90;;;;;;5021012;28;20267;-83
2023/09/07 12:11:09;;;;;;;4.20;2.72;;;28.20;99.90;;;;;;5011133;28;20231;-83
2023/09/07 12:13:45;;;;;;;3.67;3.28;;;28.10;99.90;;;;;;5012543;28;20186;-82
2023/09/07 12:16:11;;;;;;;3.53;3.00;;;28.20;99.90;;;;;;5011995;28;20657;-82
2023/09/07 12:18:41;;;;;;;3.78;3.05;;;28.20;99.90;;;;;;5003014;28;20214;-82
2023/09/07 12:21:08;;;;;;;3.65;3.35;;;28.10;99.90;;;;;;4993799;28;20273;-83
2023/09/07 12:23:34;;;;;;;3.88;2.83;;;28.20;99.90;;;;;;5025361;28;20219;-83
2023/09/07 12:26:03;;;;;;;3.92;2.65;;;28.30;99.90;;;;;;5009234;28;20597;-82
2023/09/07 12:28:31;;;;;;;3.40;2.97;;;28.30;99.90;;;;;;5042859;28;20186;-82
2023/09/07 12:30:58;;;;;;;4.93;2.88;;;28.30;99.90;;;;;;5024681;28;20222;-81
2023/09/07 12:33:24;;;;;;;3.22;2.60;;;28.40;99.90;;;;;;4992211;28;20735;-82
2023/09/07 12:35:50;;;;;;;3.90;3.33;;;28.40;99.90;;;;;;5008401;28;20361;-81
2023/09/07 12:38:18;;;;;;;4.80;2.97;;;28.40;99.90;;;;;;5007812;28;20199;-82
2023/09/07 12:40:44;;;;;;;4.45;3.13;;;28.50;99.90;;;;;;5011414;28;20655;-81
2023/09/07 12:43:10;;;;;;;4.38;2.92;;;28.40;99.90;;;;;;5013610;28;20183;-81
2023/09/07 12:45:36;;;;;;;6.30;3.15;;;28.30;99.90;;;;;;4996212;28;20221;-81
2023/09/07 12:48:02;;;;;;;8.35;3.42;;;28.40;99.90;;;;;;4997051;28;20757;-81